sensor_id;sensor_type;location;lat;lon;timestamp;pressure;altitude;pressure_sealevel;temperature;humidity
23574;BME280;11965;53.640;10.050;2023-05-27T00:00:34;102811.94;;;8.41;100.00
23574;BME280;11965;53.640;10.050;2023-05-27T00:03:01;102808.50;;;8.37;100.00
23574;BME280;11965;53.640;10.050;2023-05-27T00:05:28;102808.16;;;8.31;100.00
23574;BME280;11965;53.640;10.050;2023-05-27T00:07:56;102798.63;;;8.24;100.00
23574;BME280;11965;53.640;10.050;2023-05-27T00:10:23;102812.44;;;8.24;100.00
23574;BME280;11965;53.640;10.050;2023-05-27T00:12:50;102809.34;;;8.17;100.00
23574;BME280;11965;53.640;10.050;2023-05-27T00:15:20;102805.69;;;8.16;100.00
23574;BME280;11965;53.640;10.050;2023-05-27T00:17:47;102804.97;;;8.14;100.00
23574;BME280;11965;53.640;10.050;2023-05-27T00:20:15;102807.09;;;8.11;100.00
23574;BME280;11965;53.640;10.050;2023-05-27T00:22:42;102817.78;;;8.04;100.00
23574;BME280;11965;53.640;10.050;2023-05-27T00:25:10;102814.53;;;7.99;100.00
23574;BME280;11965;53.640;10.050;2023-05-27T00:27:37;102803.75;;;7.96;100.00
23574;BME280;11965;53.640;10.050;2023-05-27T00:30:05;102814.16;;;7.92;100.00
23574;BME280;11965;53.640;10.050;2023-05-27T00:32:32;102810.44;;;7.82;100.00
23574;BME280;11965;53.640;10.050;2023-05-27T00:34:58;102806.66;;;7.83;100.00
23574;BME280;11965;53.640;10.050;2023-05-27T00:37:25;102812.47;;;7.80;100.00
23574;BME280;11965;53.640;10.050;2023-05-27T00:39:52;102801.69;;;7.77;100.00
23574;BME280;11965;53.640;10.050;2023-05-27T00:42:20;102800.16;;;7.73;100.00
23574;BME280;11965;53.640;10.050;2023-05-27T00:44:47;102807.06;;;7.67;100.00
23574;BME280;11965;53.640;10.050;2023-05-27T00:47:14;102802.19;;;7.60;100.00
23574;BME280;11965;53.640;10.050;2023-05-27T00:49:42;102791.56;;;7.55;100.00
23574;BME280;11965;53.640;10.050;2023-05-27T00:52:09;102800.69;;;7.56;100.00
23574;BME280;11965;53.640;10.050;2023-05-27T00:54:39;102811.75;;;7.56;100.00
23574;BME280;11965;53.640;10.050;2023-05-27T00:57:06;102804.97;;;7.48;100.00
23574;BME280;11965;53.640;10.050;2023-05-27T00:59:35;102800.72;;;7.44;100.00
23574;BME280;11965;53.640;10.050;2023-05-27T01:02:05;102797.69;;;7.47;100.00
23574;BME280;11965;53.640;10.050;2023-05-27T01:04:32;102805.47;;;7.53;100.00
23574;BME280;11965;53.640;10.050;2023-05-27T01:07:08;102792.28;;;7.46;100.00
23574;BME280;11965;53.640;10.050;2023-05-27T01:09:44;102795.66;;;7.49;100.00
23574;BME280;11965;53.640;10.050;2023-05-27T01:12:18;102796.94;;;7.45;100.00
23574;BME280;11965;53.640;10.050;2023-05-27T01:14:51;102813.00;;;7.40;100.00
23574;BME280;11965;53.640;10.050;2023-05-27T01:17:24;102820.50;;;7.38;100.00
23574;BME280;11965;53.640;10.050;2023-05-27T01:19:53;102793.69;;;7.29;100.00
23574;BME280;11965;53.640;10.050;2023-05-27T01:22:27;102807.13;;;7.34;100.00
23574;BME280;11965;53.640;10.050;2023-05-27T01:24:54;102808.59;;;7.26;100.00
23574;BME280;11965;53.640;10.050;2023-05-27T01:27:21;102809.22;;;7.30;100.00
23574;BME280;11965;53.640;10.050;2023-05-27T01:29:51;102806.72;;;7.27;100.00
23574;BME280;11965;53.640;10.050;2023-05-27T01:32:25;102794.06;;;7.24;100.00
23574;BME280;11965;53.640;10.050;2023-05-27T01:34:59;102806.22;;;7.22;100.00
23574;BME280;11965;53.640;10.050;2023-05-27T01:37:33;102804.34;;;7.22;100.00
23574;BME280;11965;53.640;10.050;2023-05-27T01:40:00;102807.22;;;7.21;100.00
23574;BME280;11965;53.640;10.050;2023-05-27T01:42:32;102790.94;;;7.18;100.00
23574;BME280;11965;53.640;10.050;2023-05-27T01:45:01;102790.03;;;7.17;100.00
23574;BME280;11965;53.640;10.050;2023-05-27T01:47:30;102796.47;;;7.18;100.00
23574;BME280;11965;53.640;10.050;2023-05-27T01:49:56;102791.81;;;7.18;100.00
23574;BME280;11965;53.640;10.050;2023-05-27T01:52:23;102796.31;;;7.19;100.00
23574;BME280;11965;53.640;10.050;2023-05-27T01:54:52;102785.16;;;7.21;100.00
23574;BME280;11965;53.640;10.050;2023-05-27T01:57:20;102792.56;;;7.20;100.00
23574;BME280;11965;53.640;10.050;2023-05-27T01:59:48;102791.91;;;7.17;100.00
23574;BME280;11965;53.640;10.050;2023-05-27T02:02:17;102789.31;;;7.15;100.00
23574;BME280;11965;53.640;10.050;2023-05-27T02:04:48;102789.41;;;7.14;100.00
23574;BME280;11965;53.640;10.050;2023-05-27T02:07:15;102786.28;;;7.07;100.00
23574;BME280;11965;53.640;10.050;2023-05-27T02:09:42;102782.88;;;7.03;100.00
23574;BME280;11965;53.640;10.050;2023-05-27T02:12:10;102790.66;;;6.98;100.00
23574;BME280;11965;53.640;10.050;2023-05-27T02:14:37;102775.38;;;6.94;100.00
23574;BME280;11965;53.640;10.050;2023-05-27T02:17:05;102768.13;;;6.93;100.00
23574;BME280;11965;53.640;10.050;2023-05-27T02:19:32;102788.13;;;6.84;100.00
23574;BME280;11965;53.640;10.050;2023-05-27T02:22:00;102787.50;;;6.80;100.00
23574;BME280;11965;53.640;10.050;2023-05-27T02:24:27;102791.38;;;6.78;100.00
23574;BME280;11965;53.640;10.050;2023-05-27T02:26:53;102782.25;;;6.77;100.00
23574;BME280;11965;53.640;10.050;2023-05-27T02:29:22;102776.50;;;6.80;100.00
23574;BME280;11965;53.640;10.050;2023-05-27T02:31:49;102779.59;;;6.64;100.00
23574;BME280;11965;53.640;10.050;2023-05-27T02:34:15;102787.69;;;6.55;100.00
23574;BME280;11965;53.640;10.050;2023-05-27T02:36:42;102779.06;;;6.59;100.00
23574;BME280;11965;53.640;10.050;2023-05-27T02:39:09;102776.31;;;6.59;100.00
23574;BME280;11965;53.640;10.050;2023-05-27T02:41:36;102790.34;;;6.56;100.00
23574;BME280;11965;53.640;10.050;2023-05-27T02:44:06;102786.78;;;6.43;100.00
23574;BME280;11965;53.640;10.050;2023-05-27T02:46:34;102788.00;;;6.39;100.00
23574;BME280;11965;53.640;10.050;2023-05-27T02:49:01;102781.63;;;6.38;100.00
23574;BME280;11965;53.640;10.050;2023-05-27T02:51:28;102782.25;;;6.42;100.00
23574;BME280;11965;53.640;10.050;2023-05-27T02:53:55;102793.50;;;6.39;100.00
23574;BME280;11965;53.640;10.050;2023-05-27T02:56:22;102791.16;;;6.34;100.00
23574;BME280;11965;53.640;10.050;2023-05-27T02:58:51;102790.47;;;6.31;100.00
23574;BME280;11965;53.640;10.050;2023-05-27T03:01:18;102791.00;;;6.36;100.00
23574;BME280;11965;53.640;10.050;2023-05-27T03:03:48;102798.16;;;6.38;100.00
23574;BME280;11965;53.640;10.050;2023-05-27T03:06:14;102794.63;;;6.36;100.00
23574;BME280;11965;53.640;10.050;2023-05-27T03:08:41;102798.03;;;6.40;100.00
23574;BME280;11965;53.640;10.050;2023-05-27T03:11:09;102789.88;;;6.38;100.00
23574;BME280;11965;53.640;10.050;2023-05-27T03:13:35;102789.00;;;6.38;100.00
23574;BME280;11965;53.640;10.050;2023-05-27T03:16:06;102795.41;;;6.38;100.00
23574;BME280;11965;53.640;10.050;2023-05-27T03:18:33;102799.03;;;6.39;100.00
23574;BME280;11965;53.640;10.050;2023-05-27T03:21:01;102797.28;;;6.38;100.00
23574;BME280;11965;53.640;10.050;2023-05-27T03:23:28;102795.03;;;6.43;100.00
23574;BME280;11965;53.640;10.050;2023-05-27T03:25:56;102790.66;;;6.40;100.00
23574;BME280;11965;53.640;10.050;2023-05-27T03:28:22;102789.53;;;6.43;100.00
23574;BME280;11965;53.640;10.050;2023-05-27T03:30:49;102782.41;;;6.40;100.00
23574;BME280;11965;53.640;10.050;2023-05-27T03:33:32;102785.63;;;6.34;100.00
23574;BME280;11965;53.640;10.050;2023-05-27T03:35:59;102778.25;;;6.35;100.00
23574;BME280;11965;53.640;10.050;2023-05-27T03:38:27;102775.13;;;6.39;100.00
23574;BME280;11965;53.640;10.050;2023-05-27T03:40:54;102788.53;;;6.44;100.00
23574;BME280;11965;53.640;10.050;2023-05-27T03:43:21;102796.16;;;6.40;100.00
23574;BME280;11965;53.640;10.050;2023-05-27T03:45:48;102792.16;;;6.45;100.00
23574;BME280;11965;53.640;10.050;2023-05-27T03:48:16;102792.06;;;6.46;100.00
23574;BME280;11965;53.640;10.050;2023-05-27T03:50:43;102794.97;;;6.56;100.00
23574;BME280;11965;53.640;10.050;2023-05-27T03:53:10;102806.50;;;6.61;100.00
23574;BME280;11965;53.640;10.050;2023-05-27T03:55:38;102800.00;;;6.62;100.00
23574;BME280;11965;53.640;10.050;2023-05-27T03:58:06;102800.63;;;6.66;100.00
23574;BME280;11965;53.640;10.050;2023-05-27T04:00:33;102798.13;;;6.74;100.00
23574;BME280;11965;53.640;10.050;2023-05-27T04:03:01;102793.28;;;6.77;100.00
23574;BME280;11965;53.640;10.050;2023-05-27T04:05:28;102792.78;;;6.83;100.00
23574;BME280;11965;53.640;10.050;2023-05-27T04:07:55;102796.91;;;6.89;100.00
23574;BME280;11965;53.640;10.050;2023-05-27T04:10:22;102794.78;;;6.93;100.00
23574;BME280;11965;53.640;10.050;2023-05-27T04:12:50;102800.03;;;6.96;100.00
23574;BME280;11965;53.640;10.050;2023-05-27T04:15:17;102795.19;;;6.99;100.00
23574;BME280;11965;53.640;10.050;2023-05-27T04:17:44;102794.56;;;7.07;100.00
23574;BME280;11965;53.640;10.050;2023-05-27T04:20:11;102795.94;;;7.13;100.00
23574;BME280;11965;53.640;10.050;2023-05-27T04:22:43;102784.91;;;7.13;100.00
23574;BME280;11965;53.640;10.050;2023-05-27T04:25:13;102784.16;;;7.22;100.00
23574;BME280;11965;53.640;10.050;2023-05-27T04:27:58;102787.81;;;7.34;100.00
23574;BME280;11965;53.640;10.050;2023-05-27T04:30:29;102774.38;;;7.40;100.00
23574;BME280;11965;53.640;10.050;2023-05-27T04:32:57;102784.53;;;7.51;100.00
23574;BME280;11965;53.640;10.050;2023-05-27T04:35:25;102782.88;;;7.60;100.00
23574;BME280;11965;53.640;10.050;2023-05-27T04:37:54;102778.50;;;7.68;100.00
23574;BME280;11965;53.640;10.050;2023-05-27T04:40:21;102782.47;;;7.75;100.00
23574;BME280;11965;53.640;10.050;2023-05-27T04:43:21;102790.72;;;7.87;100.00
23574;BME280;11965;53.640;10.050;2023-05-27T04:45:49;102792.06;;;7.92;100.00
23574;BME280;11965;53.640;10.050;2023-05-27T04:48:15;102786.94;;;7.99;100.00
23574;BME280;11965;53.640;10.050;2023-05-27T04:50:44;102783.13;;;8.11;100.00
23574;BME280;11965;53.640;10.050;2023-05-27T04:53:11;102786.97;;;8.20;100.00
23574;BME280;11965;53.640;10.050;2023-05-27T04:55:38;102775.13;;;8.29;100.00
23574;BME280;11965;53.640;10.050;2023-05-27T04:58:07;102786.03;;;8.42;100.00
23574;BME280;11965;53.640;10.050;2023-05-27T05:00:35;102781.31;;;8.54;100.00
23574;BME280;11965;53.640;10.050;2023-05-27T05:03:05;102781.03;;;8.57;100.00
23574;BME280;11965;53.640;10.050;2023-05-27T05:05:34;102783.41;;;8.61;100.00
23574;BME280;11965;53.640;10.050;2023-05-27T05:08:01;102782.88;;;8.68;100.00
23574;BME280;11965;53.640;10.050;2023-05-27T05:10:29;102783.97;;;8.76;100.00
23574;BME280;11965;53.640;10.050;2023-05-27T05:12:57;102774.84;;;8.85;100.00
23574;BME280;11965;53.640;10.050;2023-05-27T05:15:24;102781.88;;;8.90;100.00
23574;BME280;11965;53.640;10.050;2023-05-27T05:17:54;102772.25;;;8.94;100.00
23574;BME280;11965;53.640;10.050;2023-05-27T05:20:21;102769.69;;;9.02;100.00
23574;BME280;11965;53.640;10.050;2023-05-27T05:22:48;102769.00;;;9.10;100.00
23574;BME280;11965;53.640;10.050;2023-05-27T05:25:18;102768.91;;;9.21;100.00
23574;BME280;11965;53.640;10.050;2023-05-27T05:27:51;102767.53;;;9.36;100.00
23574;BME280;11965;53.640;10.050;2023-05-27T05:30:18;102766.84;;;9.44;100.00
23574;BME280;11965;53.640;10.050;2023-05-27T05:32:45;102767.00;;;9.52;100.00
23574;BME280;11965;53.640;10.050;2023-05-27T05:35:14;102768.44;;;9.56;100.00
23574;BME280;11965;53.640;10.050;2023-05-27T05:37:46;102762.78;;;9.58;100.00
23574;BME280;11965;53.640;10.050;2023-05-27T05:40:13;102768.94;;;9.71;100.00
23574;BME280;11965;53.640;10.050;2023-05-27T05:42:50;102773.38;;;9.83;100.00
23574;BME280;11965;53.640;10.050;2023-05-27T05:45:17;102779.63;;;9.95;100.00
23574;BME280;11965;53.640;10.050;2023-05-27T05:47:45;102775.44;;;10.10;100.00
23574;BME280;11965;53.640;10.050;2023-05-27T05:50:18;102777.91;;;10.13;100.00
23574;BME280;11965;53.640;10.050;2023-05-27T05:52:45;102782.03;;;10.38;100.00
23574;BME280;11965;53.640;10.050;2023-05-27T05:55:12;102772.84;;;10.48;100.00
23574;BME280;11965;53.640;10.050;2023-05-27T05:57:44;102780.88;;;10.51;100.00
23574;BME280;11965;53.640;10.050;2023-05-27T06:00:12;102777.94;;;10.62;100.00
23574;BME280;11965;53.640;10.050;2023-05-27T06:02:45;102775.00;;;10.73;100.00
23574;BME280;11965;53.640;10.050;2023-05-27T06:05:33;102774.69;;;10.86;100.00
23574;BME280;11965;53.640;10.050;2023-05-27T06:08:00;102777.88;;;10.91;100.00
23574;BME280;11965;53.640;10.050;2023-05-27T06:10:27;102765.88;;;11.00;100.00
23574;BME280;11965;53.640;10.050;2023-05-27T06:12:54;102768.78;;;11.09;100.00
23574;BME280;11965;53.640;10.050;2023-05-27T06:15:21;102771.34;;;11.20;100.00
23574;BME280;11965;53.640;10.050;2023-05-27T06:17:48;102770.19;;;11.22;99.10
23574;BME280;11965;53.640;10.050;2023-05-27T06:20:15;102770.28;;;11.31;97.42
23574;BME280;11965;53.640;10.050;2023-05-27T06:22:44;102767.38;;;11.32;100.00
23574;BME280;11965;53.640;10.050;2023-05-27T06:25:30;102774.78;;;11.41;100.00
23574;BME280;11965;53.640;10.050;2023-05-27T06:28:02;102772.09;;;11.49;100.00
23574;BME280;11965;53.640;10.050;2023-05-27T06:30:31;102762.69;;;11.60;100.00
23574;BME280;11965;53.640;10.050;2023-05-27T06:32:59;102767.88;;;11.73;97.10
23574;BME280;11965;53.640;10.050;2023-05-27T06:35:28;102777.03;;;11.83;95.07
23574;BME280;11965;53.640;10.050;2023-05-27T06:37:58;102774.38;;;11.91;94.56
23574;BME280;11965;53.640;10.050;2023-05-27T06:40:25;102765.81;;;12.03;93.11
23574;BME280;11965;53.640;10.050;2023-05-27T06:42:53;102761.38;;;12.10;92.35
23574;BME280;11965;53.640;10.050;2023-05-27T06:45:52;102773.63;;;12.17;92.79
23574;BME280;11965;53.640;10.050;2023-05-27T06:48:37;102755.84;;;12.28;92.38
23574;BME280;11965;53.640;10.050;2023-05-27T06:51:05;102760.28;;;12.38;88.28
23574;BME280;11965;53.640;10.050;2023-05-27T06:53:34;102765.34;;;12.43;92.14
23574;BME280;11965;53.640;10.050;2023-05-27T06:56:09;102762.47;;;12.71;84.97
23574;BME280;11965;53.640;10.050;2023-05-27T06:58:54;102759.16;;;12.75;84.90
23574;BME280;11965;53.640;10.050;2023-05-27T07:01:22;102759.41;;;12.82;85.78
23574;BME280;11965;53.640;10.050;2023-05-27T07:03:52;102756.69;;;12.90;86.06
23574;BME280;11965;53.640;10.050;2023-05-27T07:06:26;102755.88;;;12.98;86.71
23574;BME280;11965;53.640;10.050;2023-05-27T07:08:56;102750.22;;;13.16;87.61
23574;BME280;11965;53.640;10.050;2023-05-27T07:11:28;102756.56;;;13.26;83.62
23574;BME280;11965;53.640;10.050;2023-05-27T07:14:00;102752.19;;;13.23;88.95
23574;BME280;11965;53.640;10.050;2023-05-27T07:16:30;102749.84;;;13.37;84.78
23574;BME280;11965;53.640;10.050;2023-05-27T07:18:57;102740.16;;;13.49;83.20
23574;BME280;11965;53.640;10.050;2023-05-27T07:21:26;102743.13;;;13.56;85.63
23574;BME280;11965;53.640;10.050;2023-05-27T07:23:53;102740.97;;;13.76;80.99
23574;BME280;11965;53.640;10.050;2023-05-27T07:26:32;102735.66;;;13.64;84.45
23574;BME280;11965;53.640;10.050;2023-05-27T07:29:00;102738.63;;;13.63;84.51
23574;BME280;11965;53.640;10.050;2023-05-27T07:31:54;102743.91;;;13.74;85.87
23574;BME280;11965;53.640;10.050;2023-05-27T07:34:27;102737.47;;;13.82;83.68
23574;BME280;11965;53.640;10.050;2023-05-27T07:36:56;102737.69;;;14.05;83.29
23574;BME280;11965;53.640;10.050;2023-05-27T07:39:23;102744.69;;;14.09;80.66
23574;BME280;11965;53.640;10.050;2023-05-27T07:41:52;102745.91;;;14.23;76.12
23574;BME280;11965;53.640;10.050;2023-05-27T07:44:19;102742.06;;;14.15;78.30
23574;BME280;11965;53.640;10.050;2023-05-27T07:46:48;102742.09;;;14.32;78.30
23574;BME280;11965;53.640;10.050;2023-05-27T07:49:15;102737.03;;;14.52;75.78
23574;BME280;11965;53.640;10.050;2023-05-27T07:52:01;102736.00;;;14.77;70.52
23574;BME280;11965;53.640;10.050;2023-05-27T07:54:27;102741.59;;;14.61;77.30
23574;BME280;11965;53.640;10.050;2023-05-27T07:56:56;102729.75;;;14.75;73.66
23574;BME280;11965;53.640;10.050;2023-05-27T07:59:23;102729.19;;;14.80;73.89
23574;BME280;11965;53.640;10.050;2023-05-27T08:01:50;102722.03;;;14.94;72.50
23574;BME280;11965;53.640;10.050;2023-05-27T08:04:17;102720.19;;;15.17;71.47
23574;BME280;11965;53.640;10.050;2023-05-27T08:07:23;102710.63;;;15.03;72.53
23574;BME280;11965;53.640;10.050;2023-05-27T08:10:09;102709.75;;;15.11;71.61
23574;BME280;11965;53.640;10.050;2023-05-27T08:12:57;102710.91;;;15.25;72.62
23574;BME280;11965;53.640;10.050;2023-05-27T08:15:38;102702.88;;;15.30;72.73
23574;BME280;11965;53.640;10.050;2023-05-27T08:18:19;102707.47;;;15.07;71.62
23574;BME280;11965;53.640;10.050;2023-05-27T08:21:08;102708.13;;;15.25;72.13
23574;BME280;11965;53.640;10.050;2023-05-27T08:23:50;102704.88;;;15.44;70.52
23574;BME280;11965;53.640;10.050;2023-05-27T08:26:29;102693.94;;;15.66;73.31
23574;BME280;11965;53.640;10.050;2023-05-27T08:29:10;102702.31;;;16.05;70.06
23574;BME280;11965;53.640;10.050;2023-05-27T08:31:57;102686.19;;;16.30;65.80
23574;BME280;11965;53.640;10.050;2023-05-27T08:34:24;102675.50;;;16.11;61.65
23574;BME280;11965;53.640;10.050;2023-05-27T08:36:51;102685.53;;;16.28;67.76
23574;BME280;11965;53.640;10.050;2023-05-27T08:39:18;102682.72;;;16.66;61.34
23574;BME280;11965;53.640;10.050;2023-05-27T08:41:52;102678.47;;;16.32;59.91
23574;BME280;11965;53.640;10.050;2023-05-27T08:44:23;102679.00;;;16.51;64.00
23574;BME280;11965;53.640;10.050;2023-05-27T08:47:01;102681.25;;;16.70;61.53
23574;BME280;11965;53.640;10.050;2023-05-27T08:49:29;102672.84;;;16.93;61.87
23574;BME280;11965;53.640;10.050;2023-05-27T08:52:00;102671.38;;;17.12;58.63
23574;BME280;11965;53.640;10.050;2023-05-27T08:54:29;102669.63;;;16.82;63.67
23574;BME280;11965;53.640;10.050;2023-05-27T08:57:00;102664.09;;;17.33;58.41
23574;BME280;11965;53.640;10.050;2023-05-27T08:59:32;102663.66;;;17.65;53.89
23574;BME280;11965;53.640;10.050;2023-05-27T09:02:00;102659.66;;;17.75;54.74
23574;BME280;11965;53.640;10.050;2023-05-27T09:04:28;102658.91;;;17.00;55.98
23574;BME280;11965;53.640;10.050;2023-05-27T09:06:55;102657.38;;;16.45;57.51
23574;BME280;11965;53.640;10.050;2023-05-27T09:09:22;102652.69;;;16.75;57.61
23574;BME280;11965;53.640;10.050;2023-05-27T09:11:50;102647.72;;;17.15;59.54
23574;BME280;11965;53.640;10.050;2023-05-27T09:14:20;102648.47;;;17.38;55.87
23574;BME280;11965;53.640;10.050;2023-05-27T09:16:49;102653.59;;;17.71;57.07
23574;BME280;11965;53.640;10.050;2023-05-27T09:19:16;102651.63;;;18.08;52.31
23574;BME280;11965;53.640;10.050;2023-05-27T09:21:43;102652.09;;;17.90;51.70
23574;BME280;11965;53.640;10.050;2023-05-27T09:24:10;102654.19;;;17.81;51.70
23574;BME280;11965;53.640;10.050;2023-05-27T09:26:37;102643.69;;;17.75;54.77
23574;BME280;11965;53.640;10.050;2023-05-27T09:29:05;102644.06;;;17.51;53.78
23574;BME280;11965;53.640;10.050;2023-05-27T09:31:38;102637.28;;;17.60;58.18
23574;BME280;11965;53.640;10.050;2023-05-27T09:34:11;102648.03;;;17.93;51.71
23574;BME280;11965;53.640;10.050;2023-05-27T09:36:43;102638.41;;;18.02;53.64
23574;BME280;11965;53.640;10.050;2023-05-27T09:39:10;102634.91;;;18.00;51.74
23574;BME280;11965;53.640;10.050;2023-05-27T09:41:39;102630.19;;;18.00;49.70
23574;BME280;11965;53.640;10.050;2023-05-27T09:44:07;102639.06;;;18.25;50.73
23574;BME280;11965;53.640;10.050;2023-05-27T09:46:35;102642.31;;;18.29;51.31
23574;BME280;11965;53.640;10.050;2023-05-27T09:49:02;102629.31;;;18.49;50.73
23574;BME280;11965;53.640;10.050;2023-05-27T09:51:31;102617.91;;;18.86;48.39
23574;BME280;11965;53.640;10.050;2023-05-27T09:53:59;102631.28;;;18.49;49.65
23574;BME280;11965;53.640;10.050;2023-05-27T09:56:27;102621.13;;;18.76;47.57
23574;BME280;11965;53.640;10.050;2023-05-27T09:58:55;102613.09;;;19.08;48.26
23574;BME280;11965;53.640;10.050;2023-05-27T10:01:24;102614.94;;;19.35;47.74
23574;BME280;11965;53.640;10.050;2023-05-27T10:03:54;102613.16;;;19.21;49.48
23574;BME280;11965;53.640;10.050;2023-05-27T10:06:22;102609.38;;;19.49;48.24
23574;BME280;11965;53.640;10.050;2023-05-27T10:08:52;102610.25;;;19.62;47.66
23574;BME280;11965;53.640;10.050;2023-05-27T10:11:23;102602.59;;;19.36;50.22
23574;BME280;11965;53.640;10.050;2023-05-27T10:13:51;102603.25;;;19.32;48.39
23574;BME280;11965;53.640;10.050;2023-05-27T10:16:19;102599.84;;;19.02;51.94
23574;BME280;11965;53.640;10.050;2023-05-27T10:18:47;102602.56;;;18.25;53.11
23574;BME280;11965;53.640;10.050;2023-05-27T10:21:19;102611.50;;;18.64;48.96
23574;BME280;11965;53.640;10.050;2023-05-27T10:23:58;102604.59;;;18.66;49.57
23574;BME280;11965;53.640;10.050;2023-05-27T10:26:33;102599.41;;;18.91;49.26
23574;BME280;11965;53.640;10.050;2023-05-27T10:29:08;102599.53;;;19.25;48.50
23574;BME280;11965;53.640;10.050;2023-05-27T10:31:36;102591.81;;;19.40;48.79
23574;BME280;11965;53.640;10.050;2023-05-27T10:34:04;102595.09;;;19.57;49.41
23574;BME280;11965;53.640;10.050;2023-05-27T10:36:32;102587.41;;;19.17;45.94
23574;BME280;11965;53.640;10.050;2023-05-27T10:39:03;102592.34;;;18.74;51.03
23574;BME280;11965;53.640;10.050;2023-05-27T10:41:38;102603.06;;;18.92;45.89
23574;BME280;11965;53.640;10.050;2023-05-27T10:44:06;102593.09;;;18.89;48.01
23574;BME280;11965;53.640;10.050;2023-05-27T10:46:41;102589.91;;;18.99;44.92
23574;BME280;11965;53.640;10.050;2023-05-27T10:49:10;102594.09;;;18.75;43.87
23574;BME280;11965;53.640;10.050;2023-05-27T10:51:38;102583.75;;;18.75;48.06
23574;BME280;11965;53.640;10.050;2023-05-27T10:54:06;102575.78;;;18.86;46.83
23574;BME280;11965;53.640;10.050;2023-05-27T10:56:34;102572.22;;;19.05;46.87
23574;BME280;11965;53.640;10.050;2023-05-27T10:59:01;102571.38;;;19.18;45.65
23574;BME280;11965;53.640;10.050;2023-05-27T11:01:31;102569.84;;;19.15;49.10
23574;BME280;11965;53.640;10.050;2023-05-27T11:03:58;102567.75;;;19.24;50.45
23574;BME280;11965;53.640;10.050;2023-05-27T11:06:25;102567.06;;;19.15;47.00
23574;BME280;11965;53.640;10.050;2023-05-27T11:08:52;102563.84;;;19.25;48.42
23574;BME280;11965;53.640;10.050;2023-05-27T11:11:20;102563.69;;;19.47;46.27
23574;BME280;11965;53.640;10.050;2023-05-27T11:13:48;102558.72;;;19.42;48.49
23574;BME280;11965;53.640;10.050;2023-05-27T11:16:15;102560.94;;;19.53;47.85
23574;BME280;11965;53.640;10.050;2023-05-27T11:18:44;102558.91;;;19.34;47.39
23574;BME280;11965;53.640;10.050;2023-05-27T11:21:12;102555.84;;;19.22;47.63
23574;BME280;11965;53.640;10.050;2023-05-27T11:23:43;102552.19;;;19.28;45.50
23574;BME280;11965;53.640;10.050;2023-05-27T11:26:14;102549.19;;;19.36;47.22
23574;BME280;11965;53.640;10.050;2023-05-27T11:28:47;102540.56;;;19.51;44.86
23574;BME280;11965;53.640;10.050;2023-05-27T11:31:14;102538.63;;;19.58;46.00
23574;BME280;11965;53.640;10.050;2023-05-27T11:33:42;102531.75;;;19.74;46.28
23574;BME280;11965;53.640;10.050;2023-05-27T11:36:12;102534.91;;;19.45;44.64
23574;BME280;11965;53.640;10.050;2023-05-27T11:38:46;102527.78;;;19.42;44.38
23574;BME280;11965;53.640;10.050;2023-05-27T11:41:14;102527.78;;;19.35;45.26
23574;BME280;11965;53.640;10.050;2023-05-27T11:43:48;102519.63;;;19.74;45.41
23574;BME280;11965;53.640;10.050;2023-05-27T11:46:16;102517.47;;;20.16;42.20
23574;BME280;11965;53.640;10.050;2023-05-27T11:48:43;102507.47;;;20.33;43.47
23574;BME280;11965;53.640;10.050;2023-05-27T11:51:11;102516.34;;;20.57;43.32
23574;BME280;11965;53.640;10.050;2023-05-27T11:53:44;102500.91;;;20.66;44.04
23574;BME280;11965;53.640;10.050;2023-05-27T11:56:11;102501.81;;;20.53;43.31
23574;BME280;11965;53.640;10.050;2023-05-27T11:58:38;102505.06;;;20.57;44.20
23574;BME280;11965;53.640;10.050;2023-05-27T12:01:06;102500.06;;;20.52;41.98
23574;BME280;11965;53.640;10.050;2023-05-27T12:03:33;102493.59;;;20.45;43.06
23574;BME280;11965;53.640;10.050;2023-05-27T12:06:12;102482.44;;;20.83;40.79
23574;BME280;11965;53.640;10.050;2023-05-27T12:08:41;102488.34;;;21.13;41.77
23574;BME280;11965;53.640;10.050;2023-05-27T12:11:08;102479.31;;;21.43;41.28
23574;BME280;11965;53.640;10.050;2023-05-27T12:13:35;102469.69;;;21.51;40.72
23574;BME280;11965;53.640;10.050;2023-05-27T12:16:02;102469.13;;;21.42;41.42
23574;BME280;11965;53.640;10.050;2023-05-27T12:18:31;102471.63;;;20.80;39.95
23574;BME280;11965;53.640;10.050;2023-05-27T12:20:58;102459.41;;;20.93;42.74
23574;BME280;11965;53.640;10.050;2023-05-27T12:23:25;102467.75;;;20.74;41.99
23574;BME280;11965;53.640;10.050;2023-05-27T12:25:52;102461.66;;;19.73;44.77
23574;BME280;11965;53.640;10.050;2023-05-27T12:28:19;102455.75;;;19.34;45.50
23574;BME280;11965;53.640;10.050;2023-05-27T12:30:46;102448.81;;;19.50;44.50
23574;BME280;11965;53.640;10.050;2023-05-27T12:33:15;102456.00;;;19.66;41.64
23574;BME280;11965;53.640;10.050;2023-05-27T12:35:43;102452.50;;;19.24;46.74
23574;BME280;11965;53.640;10.050;2023-05-27T12:38:10;102446.34;;;18.94;45.37
23574;BME280;11965;53.640;10.050;2023-05-27T12:40:37;102442.44;;;18.82;49.25
23574;BME280;11965;53.640;10.050;2023-05-27T12:43:04;102436.69;;;19.23;46.11
23574;BME280;11965;53.640;10.050;2023-05-27T12:45:32;102428.53;;;19.68;45.28
23574;BME280;11965;53.640;10.050;2023-05-27T12:47:59;102431.28;;;20.01;44.75
23574;BME280;11965;53.640;10.050;2023-05-27T12:50:26;102416.13;;;20.09;43.65
23574;BME280;11965;53.640;10.050;2023-05-27T12:52:54;102419.72;;;20.43;44.02